Time;durP1;ratioP1;P1;durP2;ratioP2;P2;SDS_P1;SDS_P2;PMS_P1;PMS_P2;Temp;Humidity;BMP_temperature;BMP_pressure;BME280_temperature;BME280_humidity;BME280_pressure;Samples;Min_cycle;Max_cycle;Signal;HPM_P1;HPM_P2
2021/12/31 00:01:46;;;;;;;53.40;39.42;;;;;;;;;;21081117;28;20051;-62
2021/12/31 00:11:48;;;;;;;123.40;89.82;;;;;;;;;;21080191;28;20095;-62
2021/12/31 00:21:51;;;;;;;70.38;40.45;;;;;;;;;;21078930;28;20048;-63
2021/12/31 00:31:53;;;;;;;11.52;7.18;;;;;;;;;;21077186;28;20071;-63
2021/12/31 00:41:55;;;;;;;12.68;7.97;;;;;;;;;;21079343;28;20055;-62
2021/12/31 00:51:58;;;;;;;11.65;7.45;;;;;;;;;;21077601;28;20048;-61
2021/12/31 01:02:00;;;;;;;9.95;6.43;;;;;;;;;;21077781;28;20439;-61
2021/12/31 01:12:05;;;;;;;10.30;6.30;;;;;;;;;;21076851;28;20118;-61
2021/12/31 01:22:07;;;;;;;11.10;7.13;;;;;;;;;;21077139;28;20050;-62
2021/12/31 01:32:10;;;;;;;10.73;7.03;;;;;;;;;;21076556;28;20421;-62
2021/12/31 01:42:14;;;;;;;11.05;6.75;;;;;;;;;;21076118;28;20052;-61
2021/12/31 01:52:16;;;;;;;10.00;6.40;;;;;;;;;;21090013;28;20044;-61
2021/12/31 02:02:22;;;;;;;12.20;7.40;;;;;;;;;;21089509;28;20055;-61
2021/12/31 02:12:24;;;;;;;8.45;5.72;;;;;;;;;;21089467;28;20056;-61
2021/12/31 02:22:28;;;;;;;11.40;6.60;;;;;;;;;;21087382;28;20080;-61
2021/12/31 02:32:31;;;;;;;11.55;7.22;;;;;;;;;;21087442;28;20055;-62
2021/12/31 02:42:36;;;;;;;11.07;6.25;;;;;;;;;;21086569;28;20044;-60
2021/12/31 02:52:39;;;;;;;8.73;5.75;;;;;;;;;;21085240;28;20099;-61
2021/12/31 03:02:43;;;;;;;8.27;5.82;;;;;;;;;;21083445;28;20477;-61
2021/12/31 03:12:46;;;;;;;12.40;6.60;;;;;;;;;;21084679;28;20040;-61
2021/12/31 03:22:50;;;;;;;10.82;6.68;;;;;;;;;;21083770;28;20048;-61
2021/12/31 03:32:54;;;;;;;8.50;6.47;;;;;;;;;;21083936;28;20043;-61
2021/12/31 03:43:00;;;;;;;9.30;6.15;;;;;;;;;;21082103;28;20059;-61
2021/12/31 03:53:04;;;;;;;8.48;6.05;;;;;;;;;;21081318;28;20521;-61
2021/12/31 04:03:08;;;;;;;8.77;4.80;;;;;;;;;;21080420;28;20059;-61
2021/12/31 04:13:12;;;;;;;6.55;4.68;;;;;;;;;;21079935;28;20051;-62
2021/12/31 04:23:26;;;;;;;8.90;5.07;;;;;;;;;;21079510;28;20072;-61
2021/12/31 04:33:29;;;;;;;8.32;5.50;;;;;;;;;;21079246;28;20178;-61
2021/12/31 04:43:33;;;;;;;7.88;5.30;;;;;;;;;;21078439;28;20135;-61
2021/12/31 04:53:39;;;;;;;12.45;8.15;;;;;;;;;;21077448;28;20536;-61
2021/12/31 05:03:42;;;;;;;8.48;5.43;;;;;;;;;;21077409;28;20071;-61
2021/12/31 05:13:46;;;;;;;7.07;5.70;;;;;;;;;;21078000;28;20055;-61
2021/12/31 05:23:49;;;;;;;8.32;5.70;;;;;;;;;;21087147;28;20073;-61
2021/12/31 05:33:51;;;;;;;8.70;5.63;;;;;;;;;;21092043;28;20055;-61
2021/12/31 05:43:55;;;;;;;10.25;6.75;;;;;;;;;;21091157;28;20143;-61
2021/12/31 05:53:58;;;;;;;7.30;4.80;;;;;;;;;;21090347;28;20044;-61
2021/12/31 06:04:01;;;;;;;8.50;5.30;;;;;;;;;;21089116;28;20594;-61
2021/12/31 06:14:05;;;;;;;8.25;5.15;;;;;;;;;;21089736;28;20044;-61
2021/12/31 06:24:08;;;;;;;8.73;5.78;;;;;;;;;;21087944;28;20137;-60
2021/12/31 06:34:11;;;;;;;7.60;6.05;;;;;;;;;;21087053;28;20047;-60
2021/12/31 06:44:15;;;;;;;8.13;5.07;;;;;;;;;;21087059;28;20494;-60
2021/12/31 06:54:19;;;;;;;6.70;4.70;;;;;;;;;;21085802;28;20130;-60
2021/12/31 07:04:23;;;;;;;9.23;4.65;;;;;;;;;;21084782;28;20052;-60
2021/12/31 07:14:45;;;;;;;8.02;5.07;;;;;;;;;;21085131;28;20421;-61
2021/12/31 07:25:07;;;;;;;7.25;4.63;;;;;;;;;;21083439;28;20063;-61
2021/12/31 07:35:10;;;;;;;9.45;6.10;;;;;;;;;;21081873;28;20173;-59
2021/12/31 07:45:17;;;;;;;8.98;4.50;;;;;;;;;;21081393;28;20459;-60
2021/12/31 07:55:21;;;;;;;7.60;4.53;;;;;;;;;;21081339;28;20048;-61
2021/12/31 08:05:25;;;;;;;7.35;4.72;;;;;;;;;;21082912;28;20056;-62
2021/12/31 08:15:30;;;;;;;;;;;;;;;;;;21079706;28;20486;-61
2021/12/31 08:25:40;;;;;;;6.83;4.87;;;;;;;;;;21078081;28;20380;-62
2021/12/31 08:35:46;;;;;;;7.57;4.95;;;;;;;;;;21077219;28;20044;-61
2021/12/31 08:45:50;;;;;;;11.57;5.97;;;;;;;;;;21077243;28;20048;-61
2021/12/31 08:55:54;;;;;;;9.60;5.70;;;;;;;;;;21083918;28;20048;-61
2021/12/31 09:05:56;;;;;;;10.30;7.00;;;;;;;;;;21093369;28;20055;-59
2021/12/31 09:16:03;;;;;;;9.30;6.95;;;;;;;;;;21092695;28;20044;-62
2021/12/31 09:26:06;;;;;;;11.25;6.20;;;;;;;;;;21091630;28;20135;-62
2021/12/31 09:36:11;;;;;;;14.82;7.85;;;;;;;;;;21091897;28;20044;-61
2021/12/31 09:46:15;;;;;;;8.98;6.32;;;;;;;;;;21090466;28;20496;-62
2021/12/31 09:56:18;;;;;;;13.40;7.53;;;;;;;;;;21089943;28;20067;-61
2021/12/31 10:06:20;;;;;;;14.55;9.95;;;;;;;;;;21088907;28;20044;-62
2021/12/31 10:16:26;;;;;;;9.35;6.13;;;;;;;;;;21097125;28;20039;-61
2021/12/31 10:26:31;;;;;;;7.25;4.90;;;;;;;;;;21100865;28;20044;-58
2021/12/31 10:36:36;;;;;;;7.80;4.10;;;;;;;;;;21086530;28;20406;-64
2021/12/31 10:46:41;;;;;;;6.60;3.95;;;;;;;;;;21084392;28;20101;-67
2021/12/31 10:56:44;;;;;;;7.80;3.70;;;;;;;;;;21083684;28;20624;-57
2021/12/31 11:06:49;;;;;;;7.57;3.55;;;;;;;;;;21014462;28;20147;-58
2021/12/31 11:16:54;;;;;;;6.63;4.25;;;;;;;;;;21080338;28;20089;-60
2021/12/31 11:26:59;;;;;;;6.23;3.83;;;;;;;;;;21080454;28;20079;-59
2021/12/31 11:37:02;;;;;;;8.55;4.93;;;;;;;;;;21070007;28;20082;-74
2021/12/31 11:47:08;;;;;;;5.80;3.97;;;;;;;;;;21043597;28;20048;-59
2021/12/31 11:57:29;;;;;;;9.05;3.33;;;;;;;;;;21065990;27;20757;-64
2021/12/31 12:07:33;;;;;;;6.13;2.65;;;;;;;;;;21065084;28;20049;-58
2021/12/31 12:17:36;;;;;;;4.97;3.30;;;;;;;;;;21064412;28;20127;-60
2021/12/31 12:27:39;;;;;;;5.88;3.55;;;;;;;;;;21062785;28;20040;-59
2021/12/31 12:37:43;;;;;;;9.57;6.97;;;;;;;;;;21063421;28;20557;-58
2021/12/31 12:47:51;;;;;;;7.55;4.32;;;;;;;;;;21063789;28;20079;-62
2021/12/31 12:57:55;;;;;;;9.65;6.32;;;;;;;;;;21002728;28;20146;-64
2021/12/31 13:07:59;;;;;;;14.53;10.40;;;;;;;;;;20876206;28;20139;-65
2021/12/31 13:18:06;;;;;;;13.02;7.30;;;;;;;;;;20871145;28;20532;-63
2021/12/31 13:28:11;;;;;;;10.25;6.10;;;;;;;;;;20840015;28;20425;-62
2021/12/31 13:38:15;;;;;;;10.18;6.60;;;;;;;;;;20858778;28;20045;-61
2021/12/31 13:48:19;;;;;;;7.03;5.07;;;;;;;;;;20920449;28;20156;-60
2021/12/31 13:58:27;;;;;;;5.83;4.20;;;;;;;;;;20919360;28;20056;-64
2021/12/31 14:08:41;;;;;;;7.57;5.50;;;;;;;;;;20918114;28;20056;-62
2021/12/31 14:18:45;;;;;;;7.30;4.28;;;;;;;;;;20917455;28;20045;-62
2021/12/31 14:28:49;;;;;;;7.75;4.35;;;;;;;;;;20917528;28;20053;-66
2021/12/31 14:38:51;;;;;;;6.75;3.60;;;;;;;;;;20917035;28;20048;-66
2021/12/31 14:48:55;;;;;;;6.75;3.85;;;;;;;;;;20914182;28;20496;-66
2021/12/31 14:58:57;;;;;;;5.72;3.30;;;;;;;;;;20915243;28;20408;-66
2021/12/31 15:09:00;;;;;;;9.85;4.78;;;;;;;;;;20913559;28;20532;-67
2021/12/31 15:19:03;;;;;;;10.70;5.93;;;;;;;;;;20914235;28;20163;-67
2021/12/31 15:29:05;;;;;;;9.68;7.35;;;;;;;;;;20913139;28;20128;-61
2021/12/31 15:39:07;;;;;;;10.27;7.80;;;;;;;;;;20911772;28;20053;-60
2021/12/31 15:49:13;;;;;;;9.47;6.87;;;;;;;;;;20913887;28;20111;-65
2021/12/31 15:59:15;;;;;;;10.90;7.50;;;;;;;;;;20911778;28;20096;-61
2021/12/31 16:09:18;;;;;;;12.05;7.45;;;;;;;;;;20911687;28;20049;-66
2021/12/31 16:19:22;;;;;;;12.75;8.75;;;;;;;;;;20911291;28;20076;-61
2021/12/31 16:29:45;;;;;;;9.50;7.25;;;;;;;;;;20911148;28;20489;-67
2021/12/31 16:39:47;;;;;;;15.38;8.98;;;;;;;;;;20919207;28;20044;-61
2021/12/31 16:49:49;;;;;;;13.15;8.63;;;;;;;;;;20925244;28;20049;-62
2021/12/31 16:59:51;;;;;;;17.73;11.32;;;;;;;;;;20924895;28;20120;-60
2021/12/31 17:09:54;;;;;;;14.48;9.00;;;;;;;;;;20923586;28;20195;-61
2021/12/31 17:19:57;;;;;;;16.23;11.52;;;;;;;;;;20922775;28;20120;-61
2021/12/31 17:29:59;;;;;;;15.40;9.43;;;;;;;;;;20921993;28;20111;-60
2021/12/31 17:40:03;;;;;;;17.27;11.60;;;;;;;;;;20920008;28;20127;-61
2021/12/31 17:50:06;;;;;;;27.75;16.90;;;;;;;;;;20919491;28;20152;-68
2021/12/31 18:00:08;;;;;;;17.77;11.82;;;;;;;;;;20920203;28;20052;-64
2021/12/31 18:10:12;;;;;;;15.70;10.35;;;;;;;;;;20919233;28;20057;-69
2021/12/31 18:20:15;;;;;;;16.85;12.13;;;;;;;;;;20918584;28;20053;-65
2021/12/31 18:30:17;;;;;;;15.48;11.20;;;;;;;;;;20918367;28;20202;-67
2021/12/31 18:40:19;;;;;;;27.58;21.38;;;;;;;;;;20915538;28;20052;-60
2021/12/31 18:50:22;;;;;;;46.70;25.85;;;;;;;;;;20915290;28;20061;-67
2021/12/31 19:00:26;;;;;;;23.50;16.58;;;;;;;;;;20915626;28;20485;-63
2021/12/31 19:10:29;;;;;;;11.90;9.00;;;;;;;;;;20914733;28;20481;-61
2021/12/31 19:20:31;;;;;;;36.95;23.77;;;;;;;;;;20913162;28;20053;-64
2021/12/31 19:30:33;;;;;;;21.65;15.05;;;;;;;;;;20911895;28;20057;-68
2021/12/31 19:40:35;;;;;;;21.20;15.85;;;;;;;;;;20912257;28;20041;-61
2021/12/31 19:50:38;;;;;;;19.38;11.13;;;;;;;;;;20911456;28;20057;-63
2021/12/31 20:00:40;;;;;;;31.58;17.05;;;;;;;;;;20911939;28;20048;-62
2021/12/31 20:10:42;;;;;;;25.83;13.73;;;;;;;;;;20913799;28;20064;-63
2021/12/31 20:20:45;;;;;;;43.88;26.88;;;;;;;;;;20927156;28;20053;-62
2021/12/31 20:30:47;;;;;;;45.03;29.42;;;;;;;;;;20926172;28;20044;-61
2021/12/31 20:40:50;;;;;;;26.48;16.13;;;;;;;;;;20924993;28;20103;-61
2021/12/31 20:50:52;;;;;;;31.65;20.35;;;;;;;;;;20922881;28;20141;-59
2021/12/31 21:00:54;;;;;;;23.63;15.25;;;;;;;;;;20924359;28;20080;-60
2021/12/31 21:10:57;;;;;;;26.25;15.05;;;;;;;;;;20922880;28;20053;-59
2021/12/31 21:20:59;;;;;;;19.08;11.30;;;;;;;;;;20920352;28;20045;-60
2021/12/31 21:31:01;;;;;;;19.20;12.38;;;;;;;;;;20920599;28;20049;-60
2021/12/31 21:41:04;;;;;;;50.05;33.20;;;;;;;;;;20920263;28;20100;-61
2021/12/31 21:51:07;;;;;;;12.60;9.48;;;;;;;;;;20919168;28;20087;-60
2021/12/31 22:01:09;;;;;;;33.67;21.08;;;;;;;;;;20919105;28;20045;-62
2021/12/31 22:11:12;;;;;;;76.72;44.17;;;;;;;;;;20918404;28;20063;-59
2021/12/31 22:21:14;;;;;;;16.42;10.93;;;;;;;;;;20919490;28;20573;-60
2021/12/31 22:31:16;;;;;;;17.13;12.43;;;;;;;;;;20916940;28;20074;-61
2021/12/31 22:41:18;;;;;;;16.40;11.05;;;;;;;;;;20914398;28;20056;-59
2021/12/31 22:51:20;;;;;;;13.55;9.27;;;;;;;;;;20914216;28;20114;-64
2021/12/31 23:01:26;;;;;;;15.43;10.32;;;;;;;;;;20914278;28;20049;-59
2021/12/31 23:11:29;;;;;;;80.80;54.20;;;;;;;;;;20912835;28;20136;-58
2021/12/31 23:21:31;;;;;;;52.85;40.10;;;;;;;;;;20912366;28;20110;-60
2021/12/31 23:31:34;;;;;;;77.05;52.75;;;;;;;;;;20912232;28;20049;-62
2021/12/31 23:42:07;;;;;;;35.72;28.70;;;;;;;;;;20912304;28;20476;-60
2021/12/31 23:51:59;;;;;;;36.88;27.80;;;;;;;;;;20910716;28;20045;-61
